This is the latest recevied weather packets stored in our database for station/object JH1LWU-13. If no packets are shown the sender has not sent any weather packets the latest 10 day(s).
| Time | Temp. | Humidity | Pressure | Rain* | Wind** | Luminosity | Snow |
|---|---|---|---|---|---|---|---|
| 1787479990 | 27.22° C | 70% | 1012 hPa | - | - | - | - |
| 1787478189 | 27.22° C | 69% | 1012 hPa | - | - | - | - |
| 1787476388 | 27.78° C | 63% | 1011 hPa | - | - | - | - |
| 1787474587 | 28.33° C | 62% | 1011 hPa | - | - | - | - |
| 1787472786 | 28.89° C | 60% | 1011 hPa | - | - | - | - |
| 1787470985 | 29.44° C | 59% | 1012 hPa | - | - | - | - |
| 1787469184 | 29.44° C | 59% | 1011 hPa | - | - | - | - |
| 1787467383 | 30° C | 56% | 1012 hPa | - | - | - | - |
| 1787465582 | 30.56° C | 56% | 1012 hPa | - | - | - | - |
| 1787463781 | 30.56° C | 54% | 1012 hPa | - | - | - | - |
| 1787461980 | 30.56° C | 53% | 1012 hPa | - | - | - | - |
| 1787460179 | 31.67° C | 52% | 1011 hPa | - | - | - | - |
| 1787458378 | 30.56° C | 54% | 1012 hPa | - | - | - | - |
| 1787456577 | 30° C | 57% | 1012 hPa | - | - | - | - |
| 1787454776 | 30.56° C | 55% | 1012 hPa | - | - | - | - |
| 1787452975 | 29.44° C | 59% | 1014 hPa | - | - | - | - |
| 1787451174 | 29.44° C | 57% | 1012 hPa | - | - | - | - |
| 1787449373 | 28.89° C | 59% | 1013 hPa | - | - | - | - |
| 1787447572 | 28.89° C | 61% | 1013 hPa | - | - | - | - |
| 1787445771 | 28.33° C | 61% | 1013 hPa | - | - | - | - |
| 1787443970 | 27.78° C | 64% | 1012 hPa | - | - | - | - |
| 1787442169 | 26.11° C | 69% | 1013 hPa | - | - | - | - |
| 1787440368 | 26.11° C | 71% | 1012 hPa | - | - | - | - |
| 1787438567 | 25.56° C | 73% | 1013 hPa | - | - | - | - |
| 1787436766 | 25° C | 74% | 1014 hPa | - | - | - | - |
* Rain since midnight (hover to see other rain measurements)
** Current wind speed in m/s (hover to see current wind gust speed)